createdAt,value
2022-12-25T00:01:22.572Z,5.22
2022-12-25T00:03:50.159Z,5.11
2022-12-25T00:06:17.364Z,5.05
2022-12-25T00:08:44.555Z,4.99
2022-12-25T00:11:14.918Z,4.95
2022-12-25T00:13:42.480Z,4.87
2022-12-25T00:16:21.788Z,4.86
2022-12-25T00:18:49.797Z,4.91
2022-12-25T00:21:17.619Z,4.93
2022-12-25T00:23:44.545Z,4.95
2022-12-25T00:26:14.530Z,4.98
2022-12-25T00:28:41.673Z,4.98
2022-12-25T00:31:12.010Z,4.98
2022-12-25T00:33:40.849Z,4.97
2022-12-25T00:36:09.484Z,5.00
2022-12-25T00:38:38.658Z,4.98
2022-12-25T00:41:08.125Z,4.94
2022-12-25T00:43:35.424Z,4.98
2022-12-25T00:46:04.539Z,5.04
2022-12-25T00:48:32.720Z,5.00
2022-12-25T00:51:03.092Z,5.09
2022-12-25T00:53:30.864Z,5.05
2022-12-25T00:56:06.601Z,5.03
2022-12-25T00:58:34.874Z,4.96
2022-12-25T01:01:03.023Z,4.93
2022-12-25T01:03:30.493Z,4.82
2022-12-25T01:06:06.377Z,4.71
2022-12-25T01:08:36.089Z,4.66
2022-12-25T01:11:07.144Z,4.65
2022-12-25T01:13:35.904Z,4.64
2022-12-25T01:16:07.379Z,4.69
2022-12-25T01:18:35.505Z,4.75
2022-12-25T01:21:07.665Z,4.79
2022-12-25T01:23:34.746Z,4.73
2022-12-25T01:26:06.735Z,4.80
2022-12-25T01:28:34.225Z,4.76
2022-12-25T01:31:02.000Z,4.64
2022-12-25T01:33:29.795Z,4.55
2022-12-25T01:35:57.865Z,4.58
2022-12-25T01:38:24.871Z,4.56
2022-12-25T01:40:52.077Z,4.53
2022-12-25T01:43:32.317Z,4.47
2022-12-25T01:45:59.539Z,4.45
2022-12-25T01:48:36.182Z,4.35
2022-12-25T01:51:15.892Z,4.27
2022-12-25T01:53:42.814Z,4.26
2022-12-25T01:56:09.855Z,4.22
2022-12-25T01:58:37.030Z,4.25
2022-12-25T02:01:04.068Z,4.16
2022-12-25T02:03:31.154Z,4.21
2022-12-25T02:06:00.557Z,4.17
2022-12-25T02:08:27.562Z,4.19
2022-12-25T02:10:54.380Z,4.22
2022-12-25T02:13:21.381Z,4.26
2022-12-25T02:16:09.245Z,4.26
2022-12-25T02:18:44.707Z,4.21
2022-12-25T02:21:37.920Z,4.17
2022-12-25T02:24:52.336Z,4.16
2022-12-25T02:27:25.272Z,4.15
2022-12-25T02:30:10.988Z,4.16
2022-12-25T02:32:51.859Z,4.08
2022-12-25T02:35:26.965Z,4.08
2022-12-25T02:37:59.586Z,4.02
2022-12-25T02:40:33.049Z,4.03
2022-12-25T02:43:22.822Z,4.02
2022-12-25T02:46:19.003Z,4.02
2022-12-25T02:49:09.366Z,4.00
2022-12-25T02:51:59.736Z,3.95
2022-12-25T02:54:55.798Z,3.97
2022-12-25T02:57:46.279Z,3.93
2022-12-25T03:00:33.562Z,3.97
2022-12-25T03:03:22.078Z,3.96
2022-12-25T03:06:11.749Z,4.00
2022-12-25T03:08:43.230Z,4.03
2022-12-25T03:11:30.897Z,4.03
2022-12-25T03:14:23.055Z,3.97
2022-12-25T03:16:55.386Z,3.89
2022-12-25T03:19:45.225Z,3.86
2022-12-25T03:22:37.778Z,3.70
2022-12-25T03:25:23.674Z,3.71
2022-12-25T03:27:54.946Z,3.87
2022-12-25T03:30:45.719Z,3.91
2022-12-25T03:33:46.275Z,3.91
2022-12-25T03:36:25.511Z,3.94
2022-12-25T03:39:44.225Z,3.91
2022-12-25T03:42:32.332Z,3.85
2022-12-25T03:45:24.236Z,3.93
2022-12-25T03:48:12.419Z,3.96
2022-12-25T03:51:12.860Z,3.83
2022-12-25T03:54:02.996Z,3.84
2022-12-25T03:56:50.820Z,3.69
2022-12-25T03:59:41.082Z,3.64
2022-12-25T04:02:26.787Z,3.69
2022-12-25T04:05:12.263Z,3.62
2022-12-25T04:07:58.160Z,3.64
2022-12-25T04:10:43.950Z,3.52
2022-12-25T04:13:29.744Z,3.43
2022-12-25T04:16:34.956Z,3.38
2022-12-25T04:19:20.841Z,3.32
2022-12-25T04:22:06.161Z,3.28
2022-12-25T04:24:51.578Z,3.22
2022-12-25T04:27:36.808Z,3.18
2022-12-25T04:30:22.906Z,3.21
2022-12-25T04:33:08.159Z,3.22
2022-12-25T04:35:53.727Z,3.12
2022-12-25T04:38:21.161Z,3.10
2022-12-25T04:40:48.124Z,3.04
2022-12-25T04:43:14.982Z,3.03
2022-12-25T04:45:41.821Z,3.00
2022-12-25T04:48:08.696Z,2.96
2022-12-25T04:50:35.650Z,2.91
2022-12-25T04:53:02.639Z,2.81
2022-12-25T04:55:29.498Z,2.78
2022-12-25T04:57:56.430Z,2.72
2022-12-25T05:00:23.457Z,2.64
2022-12-25T05:02:50.532Z,2.58
2022-12-25T05:05:17.490Z,2.49
2022-12-25T05:07:44.369Z,2.49
2022-12-25T05:10:11.781Z,2.45
2022-12-25T05:12:38.638Z,2.38
2022-12-25T05:15:05.828Z,2.40
2022-12-25T05:17:32.781Z,2.37
2022-12-25T05:19:59.848Z,2.34
2022-12-25T05:22:26.927Z,2.31
2022-12-25T05:24:53.812Z,2.22
2022-12-25T05:27:20.701Z,2.20
2022-12-25T05:29:47.649Z,2.14
2022-12-25T05:32:14.493Z,2.16
2022-12-25T05:34:41.365Z,2.04
2022-12-25T05:37:08.239Z,2.10
2022-12-25T05:39:36.012Z,2.09
2022-12-25T05:42:02.873Z,2.05
2022-12-25T05:44:32.614Z,1.94
2022-12-25T05:46:59.540Z,1.86
2022-12-25T05:49:26.724Z,1.77
2022-12-25T05:51:53.691Z,1.83
2022-12-25T05:54:20.912Z,1.83
2022-12-25T05:56:47.855Z,1.83
2022-12-25T05:59:14.720Z,1.81
2022-12-25T06:01:41.774Z,1.78
2022-12-25T06:04:12.748Z,1.76
2022-12-25T06:06:40.733Z,1.72
2022-12-25T06:09:07.586Z,1.60
2022-12-25T06:11:34.464Z,1.65
2022-12-25T06:14:01.346Z,1.64
2022-12-25T06:16:31.614Z,1.66
2022-12-25T06:19:02.625Z,1.70
2022-12-25T06:21:29.498Z,1.63
2022-12-25T06:23:56.474Z,1.58
2022-12-25T06:26:23.369Z,1.54
2022-12-25T06:28:51.416Z,1.55
2022-12-25T06:31:22.333Z,1.48
2022-12-25T06:33:49.827Z,1.51
2022-12-25T06:36:23.342Z,1.52
2022-12-25T06:38:51.038Z,1.44
2022-12-25T06:41:24.424Z,1.39
2022-12-25T06:43:53.626Z,1.40
2022-12-25T06:46:22.136Z,1.35
2022-12-25T06:48:49.963Z,1.35
2022-12-25T06:51:19.075Z,1.34
2022-12-25T06:53:47.067Z,1.33
2022-12-25T06:56:17.454Z,1.23
2022-12-25T06:58:46.592Z,1.32
2022-12-25T07:01:20.986Z,1.36
2022-12-25T07:03:50.687Z,1.38
2022-12-25T07:06:17.603Z,1.47
2022-12-25T07:08:45.025Z,1.50
2022-12-25T07:11:12.345Z,1.33
2022-12-25T07:13:39.398Z,1.32
2022-12-25T07:16:07.795Z,1.39
2022-12-25T07:18:35.362Z,1.57
2022-12-25T07:21:08.808Z,1.65
2022-12-25T07:23:36.237Z,1.81
2022-12-25T07:26:03.494Z,1.89
2022-12-25T07:28:31.851Z,2.02
2022-12-25T07:31:04.103Z,2.33
2022-12-25T07:33:31.443Z,2.55
2022-12-25T07:35:58.311Z,2.81
2022-12-25T07:38:25.227Z,3.13
2022-12-25T07:40:52.686Z,3.37
2022-12-25T07:43:20.201Z,3.49
2022-12-25T07:45:47.122Z,3.55
2022-12-25T07:48:16.898Z,3.25
2022-12-25T07:50:44.109Z,3.32
2022-12-25T07:53:11.111Z,3.47
2022-12-25T07:55:38.188Z,3.38
2022-12-25T07:58:07.240Z,3.53
2022-12-25T08:00:34.368Z,3.76
2022-12-25T08:03:01.475Z,3.88
2022-12-25T08:05:30.690Z,3.93
2022-12-25T08:07:58.327Z,4.31
2022-12-25T08:10:25.617Z,4.93
2022-12-25T08:12:56.229Z,5.27
2022-12-25T08:15:23.144Z,5.82
2022-12-25T08:17:49.983Z,6.29
2022-12-25T08:20:16.964Z,6.47
2022-12-25T08:22:43.822Z,6.21
2022-12-25T08:25:10.712Z,6.33
2022-12-25T08:27:37.648Z,6.89
2022-12-25T08:30:04.969Z,6.94
2022-12-25T08:32:33.692Z,7.18
2022-12-25T08:35:00.907Z,7.45
2022-12-25T08:37:30.013Z,7.42
2022-12-25T08:39:57.319Z,7.47
2022-12-25T08:42:24.369Z,7.60
2022-12-25T08:44:51.212Z,7.62
2022-12-25T08:47:18.122Z,7.82
2022-12-25T08:49:45.173Z,7.91
2022-12-25T08:52:12.305Z,8.14
2022-12-25T08:54:39.276Z,8.65
2022-12-25T08:57:06.260Z,8.62
2022-12-25T08:59:33.296Z,8.58
2022-12-25T09:02:00.478Z,8.68
2022-12-25T09:04:27.521Z,9.32
2022-12-25T09:06:54.471Z,10.10
2022-12-25T09:09:21.424Z,10.45
2022-12-25T09:11:49.298Z,11.21
2022-12-25T09:14:16.188Z,11.85
2022-12-25T09:16:43.091Z,11.97
2022-12-25T09:19:10.284Z,11.95
2022-12-25T09:21:37.421Z,11.74
2022-12-25T09:24:04.911Z,11.55
2022-12-25T09:26:31.891Z,11.76
2022-12-25T09:28:58.829Z,11.83
2022-12-25T09:31:25.826Z,11.78
2022-12-25T09:33:56.473Z,11.88
2022-12-25T09:36:23.965Z,11.63
2022-12-25T09:38:51.384Z,11.78
2022-12-25T09:41:34.077Z,11.83
2022-12-25T09:44:06.918Z,11.73
2022-12-25T09:46:45.269Z,11.76
2022-12-25T09:49:38.533Z,11.48
2022-12-25T09:52:20.524Z,11.78
2022-12-25T09:55:00.280Z,11.94
2022-12-25T09:57:27.208Z,12.14
2022-12-25T09:59:56.062Z,12.44
2022-12-25T10:02:25.862Z,13.00
2022-12-25T10:05:19.693Z,13.23
2022-12-25T10:08:05.507Z,13.78
2022-12-25T10:11:09.657Z,13.81
2022-12-25T10:13:48.483Z,14.52
2022-12-25T10:16:39.885Z,14.28
2022-12-25T10:19:25.575Z,14.67
2022-12-25T10:21:58.374Z,14.07
2022-12-25T10:24:47.302Z,13.34
2022-12-25T10:27:19.973Z,12.43
2022-12-25T10:29:53.452Z,12.19
2022-12-25T10:32:21.566Z,11.86
2022-12-25T10:34:49.763Z,11.45
2022-12-25T10:37:17.387Z,11.65
2022-12-25T10:39:46.886Z,12.22
2022-12-25T10:42:22.830Z,12.24
2022-12-25T10:45:04.570Z,12.01
2022-12-25T10:47:34.685Z,11.57
2022-12-25T10:50:23.216Z,11.18
2022-12-25T10:53:04.861Z,11.14
2022-12-25T10:55:33.369Z,11.07
2022-12-25T10:58:02.073Z,11.24
2022-12-25T11:00:31.987Z,11.24
2022-12-25T11:02:59.821Z,11.21
2022-12-25T11:05:31.360Z,11.54
2022-12-25T11:08:00.780Z,11.99
2022-12-25T11:10:33.030Z,12.98
2022-12-25T11:13:01.529Z,13.21
2022-12-25T11:15:43.105Z,13.87
2022-12-25T11:18:25.259Z,14.43
2022-12-25T11:21:00.809Z,14.95
2022-12-25T11:23:29.683Z,15.70
2022-12-25T11:25:59.595Z,15.86
2022-12-25T11:28:29.152Z,16.66
2022-12-25T11:31:01.559Z,17.58
2022-12-25T11:33:37.489Z,17.95
2022-12-25T11:36:14.588Z,17.69
2022-12-25T11:38:41.517Z,18.48
2022-12-25T11:41:12.539Z,19.07
2022-12-25T11:43:46.916Z,19.11
2022-12-25T11:46:27.635Z,19.28
2022-12-25T11:48:59.482Z,19.67
2022-12-25T11:51:32.977Z,19.49
2022-12-25T11:54:08.158Z,18.86
2022-12-25T11:56:37.916Z,19.11
2022-12-25T11:59:32.423Z,19.40
2022-12-25T12:02:05.257Z,20.00
2022-12-25T12:04:43.255Z,20.36
2022-12-25T12:07:19.497Z,20.36
2022-12-25T12:09:55.071Z,20.49
2022-12-25T12:12:48.867Z,19.97
2022-12-25T12:15:19.052Z,19.92
2022-12-25T12:17:45.979Z,20.19
2022-12-25T12:20:32.104Z,20.04
2022-12-25T12:23:01.824Z,20.00
2022-12-25T12:25:30.130Z,20.05
2022-12-25T12:28:05.634Z,20.26
2022-12-25T12:30:35.648Z,20.37
2022-12-25T12:33:05.857Z,20.98
2022-12-25T12:35:36.131Z,21.10
2022-12-25T12:38:12.053Z,20.86
2022-12-25T12:40:44.450Z,21.30
2022-12-25T12:43:35.592Z,21.36
2022-12-25T12:46:05.339Z,21.33
2022-12-25T12:48:40.008Z,21.52
2022-12-25T12:51:10.424Z,21.29
2022-12-25T12:53:42.778Z,21.16
2022-12-25T12:56:16.695Z,21.50
2022-12-25T12:58:49.968Z,20.06
2022-12-25T13:01:36.313Z,20.78
2022-12-25T13:04:26.003Z,21.83
2022-12-25T13:07:05.451Z,22.08
2022-12-25T13:10:03.606Z,21.37
2022-12-25T13:12:30.702Z,22.00
2022-12-25T13:14:58.593Z,21.09
2022-12-25T13:17:26.349Z,19.69
2022-12-25T13:20:01.265Z,18.47
2022-12-25T13:22:36.002Z,18.17
2022-12-25T13:25:08.983Z,17.42
2022-12-25T13:27:36.017Z,16.69
2022-12-25T13:30:19.052Z,17.35
2022-12-25T13:32:46.442Z,17.29
2022-12-25T13:35:15.656Z,17.14
2022-12-25T13:37:44.199Z,17.76
2022-12-25T13:40:29.357Z,18.18
2022-12-25T13:43:01.534Z,18.81
2022-12-25T13:45:30.937Z,18.05
2022-12-25T13:47:58.721Z,17.18
2022-12-25T13:50:34.471Z,16.68
2022-12-25T13:53:19.373Z,16.00
2022-12-25T13:55:54.771Z,15.34
2022-12-25T13:58:28.827Z,15.11
2022-12-25T14:00:58.703Z,14.67
2022-12-25T14:03:30.839Z,14.45
2022-12-25T14:05:59.837Z,14.35
2022-12-25T14:08:32.120Z,14.21
2022-12-25T14:11:03.795Z,14.17
2022-12-25T14:13:33.439Z,14.09
2022-12-25T14:16:01.479Z,14.03
2022-12-25T14:18:29.650Z,13.76
2022-12-25T14:21:00.125Z,13.60
2022-12-25T14:23:31.197Z,13.46
2022-12-25T14:25:58.115Z,13.21
2022-12-25T14:28:32.910Z,13.26
2022-12-25T14:31:04.030Z,13.12
2022-12-25T14:33:38.344Z,13.10
2022-12-25T14:36:07.057Z,12.79
2022-12-25T14:38:41.003Z,12.37
2022-12-25T14:41:25.804Z,12.18
2022-12-25T14:43:55.930Z,12.14
2022-12-25T14:46:25.027Z,12.11
2022-12-25T14:49:02.881Z,12.03
2022-12-25T14:51:31.814Z,11.93
2022-12-25T14:54:02.334Z,11.80
2022-12-25T14:56:38.133Z,11.87
2022-12-25T14:59:07.793Z,11.93
2022-12-25T15:01:39.195Z,11.89
2022-12-25T15:04:12.120Z,11.98
2022-12-25T15:06:42.538Z,11.94
2022-12-25T15:09:16.732Z,11.69
2022-12-25T15:11:43.622Z,11.66
2022-12-25T15:14:10.511Z,11.62
2022-12-25T15:16:45.789Z,11.56
2022-12-25T15:19:26.544Z,11.46
2022-12-25T15:21:56.359Z,11.36
2022-12-25T15:24:23.284Z,11.33
2022-12-25T15:26:52.139Z,11.40
2022-12-25T15:29:38.179Z,11.35
2022-12-25T15:32:05.956Z,11.31
2022-12-25T15:34:32.853Z,11.26
2022-12-25T15:36:59.780Z,11.24
2022-12-25T15:39:26.618Z,11.25
2022-12-25T15:42:11.713Z,11.18
2022-12-25T15:44:39.789Z,11.17
2022-12-25T15:47:08.626Z,11.08
2022-12-25T15:49:35.867Z,11.12
2022-12-25T15:52:03.869Z,11.14
2022-12-25T15:54:32.115Z,11.07
2022-12-25T15:57:02.258Z,10.98
2022-12-25T15:59:29.179Z,10.95
2022-12-25T16:01:58.842Z,10.93
2022-12-25T16:04:28.154Z,10.89
2022-12-25T16:06:56.509Z,10.81
2022-12-25T16:09:23.364Z,10.75
2022-12-25T16:11:50.515Z,10.63
2022-12-25T16:14:18.882Z,10.59
2022-12-25T16:16:45.763Z,10.56
2022-12-25T16:19:14.562Z,10.53
2022-12-25T16:21:44.801Z,10.41
2022-12-25T16:24:12.140Z,10.55
2022-12-25T16:26:39.130Z,10.55
2022-12-25T16:29:07.959Z,10.60
2022-12-25T16:31:37.046Z,10.50
2022-12-25T16:34:05.748Z,10.50
2022-12-25T16:36:32.968Z,10.45
2022-12-25T16:38:59.927Z,10.33
2022-12-25T16:41:26.826Z,10.37
2022-12-25T16:43:53.669Z,10.31
2022-12-25T16:46:22.316Z,10.22
2022-12-25T16:48:49.403Z,10.24
2022-12-25T16:51:21.069Z,10.15
2022-12-25T16:53:48.288Z,10.15
2022-12-25T16:56:20.692Z,10.16
2022-12-25T16:58:47.899Z,10.14
2022-12-25T17:01:17.061Z,10.12
2022-12-25T17:03:44.617Z,10.17
2022-12-25T17:06:19.919Z,10.17
2022-12-25T17:08:47.146Z,10.16
2022-12-25T17:11:14.837Z,10.15
2022-12-25T17:13:45.616Z,10.05
2022-12-25T17:16:18.555Z,10.10
2022-12-25T17:18:45.632Z,10.08
2022-12-25T17:21:14.766Z,10.07
2022-12-25T17:23:41.839Z,10.08
2022-12-25T17:26:08.831Z,10.04
2022-12-25T17:28:36.524Z,10.01
2022-12-25T17:31:11.861Z,10.00
2022-12-25T17:33:43.369Z,9.97
2022-12-25T17:36:13.855Z,9.90
2022-12-25T17:38:41.504Z,9.86
2022-12-25T17:41:10.800Z,9.78
2022-12-25T17:43:37.797Z,9.75
2022-12-25T17:46:09.740Z,9.71
2022-12-25T17:48:36.633Z,9.65
2022-12-25T17:51:06.165Z,9.56
2022-12-25T17:53:35.693Z,9.37
2022-12-25T17:56:02.627Z,9.54
2022-12-25T17:58:29.716Z,9.54
2022-12-25T18:00:56.755Z,9.54
2022-12-25T18:03:24.205Z,9.49
2022-12-25T18:05:51.197Z,9.54
2022-12-25T18:08:18.149Z,9.49
2022-12-25T18:10:45.157Z,9.46
2022-12-25T18:13:12.241Z,9.45
2022-12-25T18:15:40.303Z,9.45
2022-12-25T18:18:08.419Z,9.45
2022-12-25T18:20:40.250Z,9.45
2022-12-25T18:23:08.416Z,9.40
2022-12-25T18:25:40.303Z,9.32
2022-12-25T18:28:07.829Z,9.25
2022-12-25T18:30:34.696Z,9.14
2022-12-25T18:33:01.739Z,9.03
2022-12-25T18:35:29.982Z,8.97
2022-12-25T18:37:56.970Z,8.92
2022-12-25T18:40:23.995Z,8.88
2022-12-25T18:43:01.125Z,8.80
2022-12-25T18:45:30.031Z,8.76
2022-12-25T18:47:57.189Z,8.80
2022-12-25T18:50:24.646Z,8.80
2022-12-25T18:52:52.190Z,8.76
2022-12-25T18:55:20.224Z,8.76
2022-12-25T18:57:47.920Z,8.76
2022-12-25T19:00:15.470Z,8.77
2022-12-25T19:02:42.810Z,8.75
2022-12-25T19:05:10.032Z,8.71
2022-12-25T19:07:37.366Z,8.68
2022-12-25T19:10:05.918Z,8.64
2022-12-25T19:12:33.454Z,8.61
2022-12-25T19:15:00.922Z,8.48
2022-12-25T19:17:31.771Z,8.38
2022-12-25T19:19:59.298Z,8.29
2022-12-25T19:22:26.459Z,8.25
2022-12-25T19:24:53.378Z,8.28
2022-12-25T19:27:20.380Z,8.24
2022-12-25T19:29:47.348Z,8.29
2022-12-25T19:32:15.337Z,8.30
2022-12-25T19:34:42.337Z,8.30
2022-12-25T19:37:09.557Z,8.34
2022-12-25T19:39:36.704Z,8.41
2022-12-25T19:42:04.028Z,8.40
2022-12-25T19:44:31.010Z,8.39
2022-12-25T19:46:57.937Z,8.43
2022-12-25T19:49:25.403Z,8.43
2022-12-25T19:51:52.853Z,8.37
2022-12-25T19:54:20.820Z,8.44
2022-12-25T19:56:49.346Z,8.46
2022-12-25T19:59:16.732Z,8.46
2022-12-25T20:01:44.429Z,8.49
2022-12-25T20:04:11.566Z,8.51
2022-12-25T20:06:42.645Z,8.46
2022-12-25T20:09:13.591Z,8.51
2022-12-25T20:11:41.437Z,8.49
2022-12-25T20:14:08.847Z,8.48
2022-12-25T20:16:40.313Z,8.49
2022-12-25T20:19:09.682Z,8.41
2022-12-25T20:21:36.978Z,8.34
2022-12-25T20:24:04.508Z,8.33
2022-12-25T20:26:32.375Z,8.32
2022-12-25T20:29:06.799Z,8.32
2022-12-25T20:31:36.103Z,8.33
2022-12-25T20:34:08.880Z,8.36
2022-12-25T20:36:37.669Z,8.29
2022-12-25T20:39:10.041Z,8.27
2022-12-25T20:41:37.837Z,8.26
2022-12-25T20:44:06.739Z,8.23
2022-12-25T20:46:34.211Z,8.24
2022-12-25T20:49:02.332Z,8.24
2022-12-25T20:51:29.725Z,8.24
2022-12-25T20:53:57.074Z,8.21
2022-12-25T20:56:27.277Z,8.19
2022-12-25T20:58:56.438Z,8.17
2022-12-25T21:01:24.164Z,8.10
2022-12-25T21:03:51.508Z,8.19
2022-12-25T21:06:18.839Z,8.22
2022-12-25T21:08:46.013Z,8.06
2022-12-25T21:11:14.242Z,8.12
2022-12-25T21:13:43.454Z,8.14
2022-12-25T21:16:17.285Z,8.11
2022-12-25T21:18:44.574Z,8.12
2022-12-25T21:21:14.425Z,8.08
2022-12-25T21:23:41.494Z,8.01
2022-12-25T21:26:29.189Z,7.97
2022-12-25T21:28:58.067Z,7.92
2022-12-25T21:31:26.220Z,7.87
2022-12-25T21:33:55.125Z,7.84
2022-12-25T21:36:23.720Z,7.75
2022-12-25T21:39:03.887Z,7.72
2022-12-25T21:41:32.806Z,7.68
2022-12-25T21:44:00.367Z,7.66
2022-12-25T21:46:28.243Z,7.66
2022-12-25T21:48:55.840Z,7.66
2022-12-25T21:51:44.511Z,7.64
2022-12-25T21:54:12.444Z,7.64
2022-12-25T21:56:44.842Z,7.52
2022-12-25T21:59:18.093Z,7.45
2022-12-25T22:01:45.979Z,7.50
2022-12-25T22:04:14.589Z,7.50
2022-12-25T22:07:01.194Z,7.50
2022-12-25T22:09:28.198Z,7.41
2022-12-25T22:12:13.704Z,7.43
2022-12-25T22:14:56.832Z,7.39
2022-12-25T22:17:51.501Z,7.39
2022-12-25T22:20:24.794Z,7.37
2022-12-25T22:22:52.650Z,7.31
2022-12-25T22:25:20.580Z,7.30
2022-12-25T22:27:48.265Z,7.32
2022-12-25T22:30:18.718Z,7.25
2022-12-25T22:32:46.512Z,7.22
2022-12-25T22:35:13.948Z,7.21
2022-12-25T22:37:42.478Z,7.18
2022-12-25T22:40:13.187Z,7.17
2022-12-25T22:42:40.737Z,7.16
2022-12-25T22:45:08.430Z,7.21
2022-12-25T22:47:35.476Z,7.20
2022-12-25T22:50:02.472Z,7.19
2022-12-25T22:52:29.539Z,7.20
2022-12-25T22:54:56.402Z,7.20
2022-12-25T22:57:23.311Z,7.20
2022-12-25T22:59:52.686Z,7.17
2022-12-25T23:02:19.923Z,7.15
2022-12-25T23:04:46.914Z,7.03
2022-12-25T23:07:14.658Z,7.10
2022-12-25T23:09:42.521Z,7.04
2022-12-25T23:12:33.292Z,7.07
2022-12-25T23:15:00.298Z,6.97
2022-12-25T23:17:45.686Z,7.05
2022-12-25T23:20:33.477Z,6.91
2022-12-25T23:23:20.113Z,6.94
2022-12-25T23:26:05.840Z,6.94
2022-12-25T23:28:52.048Z,6.86
2022-12-25T23:31:22.762Z,6.88
2022-12-25T23:33:49.601Z,6.88
2022-12-25T23:36:16.490Z,6.89
2022-12-25T23:38:43.601Z,6.85
2022-12-25T23:41:11.254Z,6.81
2022-12-25T23:43:38.148Z,6.83
2022-12-25T23:46:05.245Z,6.82
2022-12-25T23:48:32.632Z,6.86
2022-12-25T23:51:05.106Z,6.86
2022-12-25T23:53:32.775Z,6.83
2022-12-25T23:56:00.247Z,6.71
2022-12-25T23:58:28.524Z,6.74
